PHTO/ITO METAR and TAF weather

Enter ICAO airport designator
Station Type Date Time Source
PHTO METAR 2021/01/27 13:53 UTC NOAA

PHTO 271353Z AUTO 27009KT 10SM FEW050 OVC080 21/17 A3004 RMK AO2 RAE44 SLP171 P0002 T02060172 TSNO


Station Type Date Time Source
PHTO Decoded METAR 2021/01/27 13:53 UTC NOAA

HILO INTERNATIONAL AIRPORT, HI, United States (PHTO) 19-43N 155-03W 12M
Jan 27, 2021 - 08:53 AM EST / 2021.01.27 1353 UTC
Wind: from the W (270 degrees) at 10 MPH (9 KT):0
Visibility: 10 mile(s):0
Sky conditions: overcast
Precipitation last hour: 0.02 inches
Temperature: 69.1 F (20.6 C)
Dew Point: 63.0 F (17.2 C)
Relative Humidity: 80%
Pressure (altimeter): 30.04 in. Hg (1017 hPa)
ob: PHTO 271353Z AUTO 27009KT 10SM FEW050 OVC080 21/17 A3004 RMK AO2 RAE44 SLP171 P0002 T02060172 TSNO
cycle: 14

Station Type Date Time Source
PHTO TAF 2021/01/27 12:22 UTC NOAA

TAF PHTO 271120Z 2712/2812 24005KT P6SM VCSH SCT020 BKN035
TEMPO 2712/2716 3SM SHRA BR BKN020
FM272100 12010KT P6SM VCSH SCT020 BKN040
FM280500 24005KT P6SM VCSH SCT020 BKN035

Example: see airport list